NOS8017 LIMC-LDSP
Flight info
| Callsign | NOS8017 |
|---|---|
| Flight time | N/A |
| Altitude | 37000 |
| Route | ROBAS DCT EKDIR DCT LOMED DCT TORPO |
| Aircraft | B38M/M-SDE1FGHILORVWXY/HB1 |
Departure
| Time | N/A |
|---|---|
| Airport | Milan Malpensa International Airport (LIMC) |
Arrival
| Time | 2026-04-29 13:59 |
|---|---|
| Airport | Split Saint Jerome Airport (LDSP) |
| Time | Latitude | Longitude | Altitude | Speed | Heading |
|---|---|---|---|---|---|
| 2026-04-29 13:14 | 44.69179 | 10.23064 | 33385 ft | 475 kts | 146° |
| 2026-04-29 13:14 | 44.66484 | 10.25743 | 33772 ft | 475 kts | 146° |
| 2026-04-29 13:14 | 44.63788 | 10.28419 | 34108 ft | 475 kts | 147° |
| 2026-04-29 13:14 | 44.61093 | 10.31091 | 34427 ft | 474 kts | 147° |
| 2026-04-29 13:15 | 44.58397 | 10.33762 | 34719 ft | 474 kts | 147° |
| 2026-04-29 13:15 | 44.55707 | 10.36423 | 35009 ft | 473 kts | 147° |
| 2026-04-29 13:15 | 44.53015 | 10.39083 | 35303 ft | 473 kts | 147° |
| 2026-04-29 13:15 | 44.50331 | 10.41732 | 35586 ft | 472 kts | 147° |
| 2026-04-29 13:16 | 44.47647 | 10.44378 | 35912 ft | 471 kts | 147° |
| 2026-04-29 13:16 | 44.44968 | 10.47017 | 36190 ft | 471 kts | 147° |
| 2026-04-29 13:16 | 44.42288 | 10.49653 | 36441 ft | 470 kts | 147° |
| 2026-04-29 13:16 | 44.39614 | 10.52280 | 36703 ft | 469 kts | 147° |
| 2026-04-29 13:17 | 44.36941 | 10.54903 | 36941 ft | 469 kts | 147° |
| 2026-04-29 13:17 | 44.34267 | 10.57524 | 37102 ft | 470 kts | 148° |
| 2026-04-29 13:17 | 44.31596 | 10.60140 | 37080 ft | 470 kts | 148° |
| 2026-04-29 13:18 | 44.26260 | 10.65358 | 37080 ft | 468 kts | 148° |
| 2026-04-29 13:18 | 44.20997 | 10.70605 | 37067 ft | 471 kts | 140° |
| 2026-04-29 13:19 | 44.16656 | 10.77421 | 37094 ft | 472 kts | 133° |
| 2026-04-29 13:19 | 44.12397 | 10.84389 | 37063 ft | 473 kts | 132° |
| 2026-04-29 13:20 | 44.08145 | 10.91402 | 37054 ft | 474 kts | 132° |
| 2026-04-29 13:20 | 44.04038 | 10.98458 | 37030 ft | 474 kts | 122° |
| 2026-04-29 13:20 | 44.02692 | 11.02634 | 37019 ft | 474 kts | 105° |
| 2026-04-29 13:21 | 44.02014 | 11.07117 | 37045 ft | 476 kts | 101° |
| 2026-04-29 13:21 | 44.00833 | 11.16190 | 37043 ft | 478 kts | 100° |
| 2026-04-29 13:22 | 43.99713 | 11.25296 | 37049 ft | 478 kts | 99° |
| 2026-04-29 13:22 | 43.98600 | 11.34399 | 37046 ft | 479 kts | 100° |
| 2026-04-29 13:23 | 43.97477 | 11.43523 | 37050 ft | 479 kts | 100° |
| 2026-04-29 13:23 | 43.96348 | 11.52640 | 37045 ft | 479 kts | 100° |
| 2026-04-29 13:24 | 43.95212 | 11.61753 | 37044 ft | 479 kts | 100° |
| 2026-04-29 13:24 | 43.94068 | 11.70864 | 37045 ft | 479 kts | 100° |
| 2026-04-29 13:25 | 43.92916 | 11.79980 | 37047 ft | 480 kts | 100° |
| 2026-04-29 13:25 | 43.91174 | 11.93649 | 37048 ft | 480 kts | 100° |
| 2026-04-29 13:26 | 43.90013 | 12.02688 | 37040 ft | 480 kts | 100° |
| 2026-04-29 13:26 | 43.88834 | 12.11804 | 37046 ft | 480 kts | 101° |
| 2026-04-29 13:27 | 43.87648 | 12.20911 | 37051 ft | 480 kts | 101° |
| 2026-04-29 13:27 | 43.86453 | 12.30029 | 37039 ft | 481 kts | 101° |
| 2026-04-29 13:28 | 43.85252 | 12.39138 | 37041 ft | 480 kts | 101° |
| 2026-04-29 13:28 | 43.84043 | 12.48250 | 37051 ft | 482 kts | 101° |
| 2026-04-29 13:29 | 43.82824 | 12.57375 | 37048 ft | 482 kts | 101° |
| 2026-04-29 13:29 | 43.81597 | 12.66502 | 37046 ft | 482 kts | 101° |
| 2026-04-29 13:30 | 43.80363 | 12.75626 | 37043 ft | 482 kts | 101° |
| 2026-04-29 13:30 | 43.79123 | 12.84738 | 37052 ft | 483 kts | 101° |
| 2026-04-29 13:31 | 43.77872 | 12.93868 | 37036 ft | 482 kts | 101° |
| 2026-04-29 13:31 | 43.76615 | 13.02990 | 37047 ft | 483 kts | 101° |
| 2026-04-29 13:32 | 43.75358 | 13.12052 | 37040 ft | 483 kts | 101° |
| 2026-04-29 13:32 | 43.74078 | 13.21230 | 37049 ft | 484 kts | 101° |
| 2026-04-29 13:33 | 43.73439 | 13.25785 | 36509 ft | 482 kts | 101° |
| 2026-04-29 13:33 | 43.72796 | 13.30362 | 35561 ft | 488 kts | 101° |
| 2026-04-29 13:33 | 43.72153 | 13.34919 | 34894 ft | 488 kts | 101° |
| 2026-04-29 13:33 | 43.71507 | 13.39488 | 34499 ft | 481 kts | 101° |
| 2026-04-29 13:34 | 43.70868 | 13.43986 | 34151 ft | 473 kts | 101° |
| 2026-04-29 13:34 | 43.70237 | 13.48424 | 33637 ft | 469 kts | 101° |
| 2026-04-29 13:34 | 43.69607 | 13.52840 | 33031 ft | 467 kts | 101° |
| 2026-04-29 13:34 | 43.68979 | 13.57228 | 32475 ft | 464 kts | 101° |
| 2026-04-29 13:35 | 43.68352 | 13.61591 | 31989 ft | 460 kts | 101° |
| 2026-04-29 13:35 | 43.67730 | 13.65912 | 31506 ft | 457 kts | 101° |
| 2026-04-29 13:35 | 43.67112 | 13.70191 | 31014 ft | 454 kts | 101° |
| 2026-04-29 13:35 | 43.66495 | 13.74454 | 30515 ft | 451 kts | 101° |
| 2026-04-29 13:36 | 43.65881 | 13.78686 | 30014 ft | 449 kts | 101° |
| 2026-04-29 13:36 | 43.65267 | 13.82903 | 29457 ft | 446 kts | 101° |
| 2026-04-29 13:36 | 43.64656 | 13.87091 | 28974 ft | 442 kts | 101° |
| 2026-04-29 13:36 | 43.64049 | 13.91234 | 28513 ft | 438 kts | 102° |
| 2026-04-29 13:37 | 43.63447 | 13.95342 | 28047 ft | 435 kts | 102° |
| 2026-04-29 13:37 | 43.62847 | 13.99418 | 27594 ft | 432 kts | 102° |
| 2026-04-29 13:37 | 43.62259 | 14.03406 | 27145 ft | 428 kts | 102° |
| 2026-04-29 13:37 | 43.61658 | 14.07470 | 26694 ft | 426 kts | 102° |
| 2026-04-29 13:38 | 43.61065 | 14.11468 | 26256 ft | 423 kts | 102° |
| 2026-04-29 13:38 | 43.60485 | 14.15376 | 25835 ft | 420 kts | 102° |
| 2026-04-29 13:38 | 43.59892 | 14.19365 | 25397 ft | 418 kts | 102° |
| 2026-04-29 13:38 | 43.59308 | 14.23283 | 24977 ft | 416 kts | 102° |
| 2026-04-29 13:39 | 43.58725 | 14.27185 | 24551 ft | 414 kts | 102° |
| 2026-04-29 13:39 | 43.58143 | 14.31072 | 24138 ft | 413 kts | 102° |
| 2026-04-29 13:39 | 43.57562 | 14.34940 | 23719 ft | 412 kts | 102° |
| 2026-04-29 13:39 | 43.56989 | 14.38746 | 23240 ft | 410 kts | 102° |
| 2026-04-29 13:40 | 43.56383 | 14.42582 | 22781 ft | 408 kts | 105° |
| 2026-04-29 13:40 | 43.55640 | 14.46344 | 22327 ft | 406 kts | 105° |
| 2026-04-29 13:40 | 43.54912 | 14.50088 | 21982 ft | 402 kts | 105° |
| 2026-04-29 13:40 | 43.54200 | 14.53791 | 21594 ft | 398 kts | 105° |
| 2026-04-29 13:41 | 43.53493 | 14.57475 | 21190 ft | 396 kts | 105° |
| 2026-04-29 13:41 | 43.52792 | 14.61132 | 20795 ft | 393 kts | 105° |
| 2026-04-29 13:41 | 43.52095 | 14.64762 | 20402 ft | 391 kts | 105° |
| 2026-04-29 13:41 | 43.51399 | 14.68376 | 20019 ft | 389 kts | 105° |
| 2026-04-29 13:42 | 43.50706 | 14.71972 | 19623 ft | 387 kts | 105° |
| 2026-04-29 13:42 | 43.50017 | 14.75543 | 19229 ft | 385 kts | 105° |
| 2026-04-29 13:42 | 43.49329 | 14.79102 | 18844 ft | 383 kts | 105° |
| 2026-04-29 13:42 | 43.48642 | 14.82649 | 18458 ft | 382 kts | 105° |
| 2026-04-29 13:43 | 43.47956 | 14.86178 | 18032 ft | 380 kts | 105° |
| 2026-04-29 13:43 | 43.47274 | 14.89684 | 17625 ft | 378 kts | 106° |
| 2026-04-29 13:43 | 43.46595 | 14.93172 | 17230 ft | 375 kts | 106° |
| 2026-04-29 13:43 | 43.45921 | 14.96625 | 16848 ft | 372 kts | 106° |
| 2026-04-29 13:44 | 43.45252 | 15.00046 | 16473 ft | 370 kts | 106° |
| 2026-04-29 13:44 | 43.44585 | 15.03456 | 16101 ft | 367 kts | 106° |
| 2026-04-29 13:44 | 43.43921 | 15.06837 | 15728 ft | 365 kts | 106° |
| 2026-04-29 13:44 | 43.43272 | 15.10143 | 15365 ft | 362 kts | 106° |
| 2026-04-29 13:45 | 43.42634 | 15.13489 | 14916 ft | 362 kts | 103° |
| 2026-04-29 13:45 | 43.42170 | 15.16933 | 14174 ft | 368 kts | 101° |
| 2026-04-29 13:45 | 43.41698 | 15.20400 | 13475 ft | 369 kts | 102° |
| 2026-04-29 13:45 | 43.41211 | 15.23871 | 12777 ft | 369 kts | 102° |
| 2026-04-29 13:46 | 43.40721 | 15.27318 | 12257 ft | 364 kts | 102° |
| 2026-04-29 13:46 | 43.40240 | 15.30678 | 11910 ft | 353 kts | 102° |
| 2026-04-29 13:46 | 43.39771 | 15.33939 | 11618 ft | 342 kts | 102° |
| 2026-04-29 13:46 | 43.39314 | 15.37101 | 11303 ft | 333 kts | 102° |
| 2026-04-29 13:47 | 43.38870 | 15.40175 | 10965 ft | 322 kts | 102° |
| 2026-04-29 13:47 | 43.38441 | 15.43134 | 10652 ft | 310 kts | 102° |
| 2026-04-29 13:47 | 43.38020 | 15.46031 | 10375 ft | 307 kts | 102° |
| 2026-04-29 13:47 | 43.37606 | 15.48881 | 10176 ft | 301 kts | 102° |
| 2026-04-29 13:48 | 43.37330 | 15.51699 | 9869 ft | 295 kts | 89° |
| 2026-04-29 13:48 | 43.37479 | 15.54504 | 9321 ft | 293 kts | 85° |
| 2026-04-29 13:48 | 43.37632 | 15.57288 | 8804 ft | 290 kts | 86° |
| 2026-04-29 13:48 | 43.37768 | 15.60021 | 8427 ft | 282 kts | 86° |
| 2026-04-29 13:49 | 43.37890 | 15.62636 | 8161 ft | 274 kts | 87° |
| 2026-04-29 13:49 | 43.38005 | 15.65220 | 7888 ft | 268 kts | 87° |
| 2026-04-29 13:49 | 43.38114 | 15.67764 | 7623 ft | 266 kts | 87° |
| 2026-04-29 13:49 | 43.38221 | 15.70298 | 7349 ft | 266 kts | 87° |
| 2026-04-29 13:50 | 43.38327 | 15.72858 | 7081 ft | 271 kts | 88° |
| 2026-04-29 13:50 | 43.38434 | 15.75465 | 6797 ft | 274 kts | 87° |
| 2026-04-29 13:50 | 43.38541 | 15.78083 | 6507 ft | 274 kts | 88° |
| 2026-04-29 13:50 | 43.38647 | 15.80692 | 6200 ft | 273 kts | 88° |
| 2026-04-29 13:51 | 43.38752 | 15.83291 | 5894 ft | 272 kts | 88° |
| 2026-04-29 13:51 | 43.38856 | 15.85876 | 5598 ft | 270 kts | 88° |
| 2026-04-29 13:51 | 43.38959 | 15.88444 | 5335 ft | 267 kts | 88° |
| 2026-04-29 13:51 | 43.39058 | 15.90938 | 5181 ft | 254 kts | 88° |
| 2026-04-29 13:52 | 43.39152 | 15.93291 | 5061 ft | 238 kts | 88° |
| 2026-04-29 13:52 | 43.39239 | 15.95490 | 4958 ft | 223 kts | 88° |
| 2026-04-29 13:52 | 43.39318 | 15.97528 | 4952 ft | 205 kts | 88° |
| 2026-04-29 13:52 | 43.39393 | 15.99428 | 4829 ft | 194 kts | 88° |
| 2026-04-29 13:53 | 43.39463 | 16.01234 | 4634 ft | 184 kts | 89° |
| 2026-04-29 13:53 | 43.39587 | 16.02938 | 4460 ft | 176 kts | 75° |
| 2026-04-29 13:53 | 43.40130 | 16.04457 | 4257 ft | 181 kts | 60° |
| 2026-04-29 13:53 | 43.40810 | 16.05937 | 4028 ft | 184 kts | 59° |
| 2026-04-29 13:54 | 43.41282 | 16.06907 | 3876 ft | 185 kts | 57° |
| 2026-04-29 13:54 | 43.42271 | 16.08820 | 3597 ft | 182 kts | 57° |
| 2026-04-29 13:54 | 43.43025 | 16.10219 | 3347 ft | 181 kts | 56° |
| 2026-04-29 13:54 | 43.43779 | 16.11598 | 3103 ft | 179 kts | 56° |
| 2026-04-29 13:55 | 43.44279 | 16.12500 | 2935 ft | 178 kts | 56° |
| 2026-04-29 13:55 | 43.45018 | 16.13834 | 2703 ft | 170 kts | 56° |
| 2026-04-29 13:55 | 43.45723 | 16.15101 | 2479 ft | 167 kts | 56° |
| 2026-04-29 13:55 | 43.46425 | 16.16364 | 2271 ft | 169 kts | 54° |
| 2026-04-29 13:56 | 43.47125 | 16.17622 | 2069 ft | 149 kts | 54° |
| 2026-04-29 13:56 | 43.47773 | 16.18786 | 1734 ft | 163 kts | 54° |
| 2026-04-29 13:56 | 43.48440 | 16.19956 | 1576 ft | 152 kts | 55° |
| 2026-04-29 13:56 | 43.49083 | 16.21113 | 1393 ft | 151 kts | 57° |
| 2026-04-29 13:57 | 43.49703 | 16.22281 | 1212 ft | 150 kts | 56° |
| 2026-04-29 13:57 | 43.50349 | 16.23398 | 1027 ft | 148 kts | 56° |
| 2026-04-29 13:57 | 43.50960 | 16.24521 | 844 ft | 146 kts | 53° |
| 2026-04-29 13:57 | 43.51587 | 16.25634 | 630 ft | 149 kts | 54° |
| 2026-04-29 13:58 | 43.52223 | 16.26796 | 419 ft | 153 kts | 53° |
| 2026-04-29 13:58 | 43.52877 | 16.27966 | 221 ft | 154 kts | 51° |
| 2026-04-29 13:58 | 43.53510 | 16.29099 | 85 ft | 140 kts | 53° |
| 2026-04-29 13:58 | 43.53942 | 16.29878 | 75 ft | 63 kts | 52° |
| 2026-04-29 13:59 | 43.54036 | 16.30088 | 67 ft | 7 kts | 122° |
| 2026-04-29 13:59 | 43.53992 | 16.30094 | 67 ft | 6 kts | 192° |
| 2026-04-29 13:59 | 43.53950 | 16.30078 | 66 ft | 7 kts | 196° |
| 2026-04-29 13:59 | 43.53894 | 16.30036 | 65 ft | 13 kts | 225° |
| 2026-04-29 14:00 | 43.53830 | 16.29923 | 68 ft | 16 kts | 233° |
| 2026-04-29 14:00 | 43.53774 | 16.29821 | 66 ft | 11 kts | 233° |
| 2026-04-29 14:00 | 43.53733 | 16.29749 | 66 ft | 9 kts | 218° |
| 2026-04-29 14:00 | 43.53712 | 16.29758 | 70 ft | 5 kts | 124° |
| 2026-04-29 14:01 | 43.53476 | 16.29037 | 87 ft | 0 kts | 53° |